sensor_id;sensor_type;location;lat;lon;timestamp;P1;durP1;ratioP1;P2;durP2;ratioP2
72590;SDS011;60625;51.212;5.952;2022-08-01T00:02:38;5.60;;;2.50;;
72590;SDS011;60625;51.212;5.952;2022-08-01T00:07:39;3.90;;;1.80;;
72590;SDS011;60625;51.212;5.952;2022-08-01T00:12:40;7.80;;;2.40;;
72590;SDS011;60625;51.212;5.952;2022-08-01T00:17:42;5.80;;;2.10;;
72590;SDS011;60625;51.212;5.952;2022-08-01T00:22:43;7.20;;;2.50;;
72590;SDS011;60625;51.212;5.952;2022-08-01T00:27:44;8.00;;;2.10;;
72590;SDS011;60625;51.212;5.952;2022-08-01T00:32:44;5.10;;;1.70;;
72590;SDS011;60625;51.212;5.952;2022-08-01T00:37:45;4.40;;;2.10;;
72590;SDS011;60625;51.212;5.952;2022-08-01T00:42:46;6.50;;;2.00;;
72590;SDS011;60625;51.212;5.952;2022-08-01T00:47:46;3.50;;;1.40;;
72590;SDS011;60625;51.212;5.952;2022-08-01T00:52:47;5.10;;;2.00;;
72590;SDS011;60625;51.212;5.952;2022-08-01T00:57:49;4.50;;;2.20;;
72590;SDS011;60625;51.212;5.952;2022-08-01T01:02:50;4.30;;;2.10;;
72590;SDS011;60625;51.212;5.952;2022-08-01T01:08:03;5.70;;;2.10;;
72590;SDS011;60625;51.212;5.952;2022-08-01T01:13:20;5.50;;;2.40;;
72590;SDS011;60625;51.212;5.952;2022-08-01T01:18:37;4.80;;;1.80;;
72590;SDS011;60625;51.212;5.952;2022-08-01T01:29:25;4.60;;;1.90;;
72590;SDS011;60625;51.212;5.952;2022-08-01T01:34:32;5.00;;;2.30;;
72590;SDS011;60625;51.212;5.952;2022-08-01T01:39:36;4.50;;;2.20;;
72590;SDS011;60625;51.212;5.952;2022-08-01T01:44:38;6.90;;;2.40;;
72590;SDS011;60625;51.212;5.952;2022-08-01T01:49:40;5.40;;;2.60;;
72590;SDS011;60625;51.212;5.952;2022-08-01T01:54:45;5.60;;;2.50;;
72590;SDS011;60625;51.212;5.952;2022-08-01T01:59:50;8.80;;;3.00;;
72590;SDS011;60625;51.212;5.952;2022-08-01T02:04:52;5.70;;;2.70;;
72590;SDS011;60625;51.212;5.952;2022-08-01T02:09:54;7.00;;;2.60;;
72590;SDS011;60625;51.212;5.952;2022-08-01T02:14:55;9.70;;;3.10;;
72590;SDS011;60625;51.212;5.952;2022-08-01T02:19:57;6.10;;;2.90;;
72590;SDS011;60625;51.212;5.952;2022-08-01T02:25:02;6.70;;;3.30;;
72590;SDS011;60625;51.212;5.952;2022-08-01T02:30:12;8.80;;;3.20;;
72590;SDS011;60625;51.212;5.952;2022-08-01T02:35:20;6.60;;;2.70;;
72590;SDS011;60625;51.212;5.952;2022-08-01T02:40:26;7.50;;;3.20;;
72590;SDS011;60625;51.212;5.952;2022-08-01T02:45:29;6.50;;;2.90;;
72590;SDS011;60625;51.212;5.952;2022-08-01T02:50:32;8.00;;;3.90;;
72590;SDS011;60625;51.212;5.952;2022-08-01T02:55:34;9.90;;;3.70;;
72590;SDS011;60625;51.212;5.952;2022-08-01T03:00:35;8.10;;;4.00;;
72590;SDS011;60625;51.212;5.952;2022-08-01T03:05:37;10.50;;;4.40;;
72590;SDS011;60625;51.212;5.952;2022-08-01T03:10:42;11.10;;;5.00;;
72590;SDS011;60625;51.212;5.952;2022-08-01T03:15:45;11.30;;;5.40;;
72590;SDS011;60625;51.212;5.952;2022-08-01T03:20:48;9.40;;;5.30;;
72590;SDS011;60625;51.212;5.952;2022-08-01T03:25:50;12.90;;;5.60;;
72590;SDS011;60625;51.212;5.952;2022-08-01T03:30:52;11.10;;;6.20;;
72590;SDS011;60625;51.212;5.952;2022-08-01T03:35:54;12.20;;;6.20;;
72590;SDS011;60625;51.212;5.952;2022-08-01T03:41:08;10.30;;;5.80;;
72590;SDS011;60625;51.212;5.952;2022-08-01T03:46:17;12.40;;;6.30;;
72590;SDS011;60625;51.212;5.952;2022-08-01T03:51:22;12.00;;;7.40;;
72590;SDS011;60625;51.212;5.952;2022-08-01T03:56:24;17.00;;;8.40;;
72590;SDS011;60625;51.212;5.952;2022-08-01T04:01:25;17.10;;;8.20;;
72590;SDS011;60625;51.212;5.952;2022-08-01T04:06:27;13.80;;;8.10;;
72590;SDS011;60625;51.212;5.952;2022-08-01T04:11:27;13.50;;;7.70;;
72590;SDS011;60625;51.212;5.952;2022-08-01T04:16:28;14.30;;;8.00;;
72590;SDS011;60625;51.212;5.952;2022-08-01T04:21:30;15.90;;;9.50;;
72590;SDS011;60625;51.212;5.952;2022-08-01T04:26:34;19.60;;;8.10;;
72590;SDS011;60625;51.212;5.952;2022-08-01T04:31:37;16.20;;;8.60;;
72590;SDS011;60625;51.212;5.952;2022-08-01T04:36:40;15.40;;;8.60;;
72590;SDS011;60625;51.212;5.952;2022-08-01T04:41:45;14.00;;;8.80;;
72590;SDS011;60625;51.212;5.952;2022-08-01T04:46:48;15.50;;;8.60;;
72590;SDS011;60625;51.212;5.952;2022-08-01T04:51:53;16.60;;;9.10;;
72590;SDS011;60625;51.212;5.952;2022-08-01T04:57:00;16.50;;;9.30;;
72590;SDS011;60625;51.212;5.952;2022-08-01T05:02:00;17.50;;;9.20;;
72590;SDS011;60625;51.212;5.952;2022-08-01T05:07:01;16.30;;;8.50;;
72590;SDS011;60625;51.212;5.952;2022-08-01T05:12:04;20.50;;;9.70;;
72590;SDS011;60625;51.212;5.952;2022-08-01T05:17:07;18.80;;;10.90;;
72590;SDS011;60625;51.212;5.952;2022-08-01T05:22:09;18.30;;;9.80;;
72590;SDS011;60625;51.212;5.952;2022-08-01T05:27:10;17.90;;;10.50;;
72590;SDS011;60625;51.212;5.952;2022-08-01T05:32:11;23.00;;;10.90;;
72590;SDS011;60625;51.212;5.952;2022-08-01T05:37:11;18.50;;;10.50;;
72590;SDS011;60625;51.212;5.952;2022-08-01T05:42:12;21.40;;;10.20;;
72590;SDS011;60625;51.212;5.952;2022-08-01T05:47:12;19.70;;;10.50;;
72590;SDS011;60625;51.212;5.952;2022-08-01T05:52:13;22.20;;;12.00;;
72590;SDS011;60625;51.212;5.952;2022-08-01T05:57:14;21.80;;;11.70;;
72590;SDS011;60625;51.212;5.952;2022-08-01T06:02:14;23.50;;;10.80;;
72590;SDS011;60625;51.212;5.952;2022-08-01T06:07:15;19.80;;;10.70;;
72590;SDS011;60625;51.212;5.952;2022-08-01T06:12:15;18.60;;;11.20;;
72590;SDS011;60625;51.212;5.952;2022-08-01T06:17:16;19.10;;;11.80;;
72590;SDS011;60625;51.212;5.952;2022-08-01T06:22:16;20.30;;;11.80;;
72590;SDS011;60625;51.212;5.952;2022-08-01T06:27:17;20.00;;;11.60;;
72590;SDS011;60625;51.212;5.952;2022-08-01T06:32:17;18.90;;;10.90;;
72590;SDS011;60625;51.212;5.952;2022-08-01T06:37:18;19.70;;;11.10;;
72590;SDS011;60625;51.212;5.952;2022-08-01T06:42:18;17.90;;;11.20;;
72590;SDS011;60625;51.212;5.952;2022-08-01T06:47:19;19.20;;;11.10;;
72590;SDS011;60625;51.212;5.952;2022-08-01T06:52:19;21.60;;;10.00;;
72590;SDS011;60625;51.212;5.952;2022-08-01T06:57:20;18.50;;;10.50;;
72590;SDS011;60625;51.212;5.952;2022-08-01T07:02:20;17.50;;;10.40;;
72590;SDS011;60625;51.212;5.952;2022-08-01T07:07:21;15.90;;;9.30;;
72590;SDS011;60625;51.212;5.952;2022-08-01T07:12:22;17.70;;;10.00;;
72590;SDS011;60625;51.212;5.952;2022-08-01T07:17:22;22.90;;;11.60;;
72590;SDS011;60625;51.212;5.952;2022-08-01T07:22:22;17.50;;;10.60;;
72590;SDS011;60625;51.212;5.952;2022-08-01T07:27:23;21.50;;;11.50;;
72590;SDS011;60625;51.212;5.952;2022-08-01T07:32:24;19.30;;;11.70;;
72590;SDS011;60625;51.212;5.952;2022-08-01T07:37:26;19.40;;;11.80;;
72590;SDS011;60625;51.212;5.952;2022-08-01T07:42:26;16.20;;;10.90;;
72590;SDS011;60625;51.212;5.952;2022-08-01T07:47:27;21.30;;;12.80;;
72590;SDS011;60625;51.212;5.952;2022-08-01T07:52:27;20.90;;;11.50;;
72590;SDS011;60625;51.212;5.952;2022-08-01T07:57:28;17.00;;;10.80;;
72590;SDS011;60625;51.212;5.952;2022-08-01T08:02:29;19.70;;;12.50;;
72590;SDS011;60625;51.212;5.952;2022-08-01T08:07:29;17.80;;;10.50;;
72590;SDS011;60625;51.212;5.952;2022-08-01T08:12:29;20.50;;;12.40;;
72590;SDS011;60625;51.212;5.952;2022-08-01T08:17:30;16.10;;;11.40;;
72590;SDS011;60625;51.212;5.952;2022-08-01T08:22:32;20.30;;;13.30;;
72590;SDS011;60625;51.212;5.952;2022-08-01T08:27:33;16.80;;;11.50;;
72590;SDS011;60625;51.212;5.952;2022-08-01T08:32:35;17.60;;;11.90;;
72590;SDS011;60625;51.212;5.952;2022-08-01T08:37:37;16.10;;;10.90;;
72590;SDS011;60625;51.212;5.952;2022-08-01T08:42:39;19.60;;;11.20;;
72590;SDS011;60625;51.212;5.952;2022-08-01T08:47:41;12.20;;;7.20;;
72590;SDS011;60625;51.212;5.952;2022-08-01T08:52:43;10.50;;;6.90;;
72590;SDS011;60625;51.212;5.952;2022-08-01T08:57:44;11.50;;;5.80;;
72590;SDS011;60625;51.212;5.952;2022-08-01T09:02:47;7.90;;;4.60;;
72590;SDS011;60625;51.212;5.952;2022-08-01T09:07:49;8.20;;;5.10;;
72590;SDS011;60625;51.212;5.952;2022-08-01T09:13:08;8.10;;;4.50;;
72590;SDS011;60625;51.212;5.952;2022-08-01T09:18:37;8.90;;;3.90;;
72590;SDS011;60625;51.212;5.952;2022-08-01T09:23:46;7.90;;;4.00;;
72590;SDS011;60625;51.212;5.952;2022-08-01T09:28:49;8.10;;;4.20;;
72590;SDS011;60625;51.212;5.952;2022-08-01T09:34:00;8.70;;;3.90;;
72590;SDS011;60625;51.212;5.952;2022-08-01T09:39:12;6.50;;;3.00;;
72590;SDS011;60625;51.212;5.952;2022-08-01T09:44:16;5.00;;;2.00;;
72590;SDS011;60625;51.212;5.952;2022-08-01T09:49:28;4.00;;;2.00;;
72590;SDS011;60625;51.212;5.952;2022-08-01T09:54:32;4.90;;;2.00;;
72590;SDS011;60625;51.212;5.952;2022-08-01T09:59:37;5.10;;;1.70;;
72590;SDS011;60625;51.212;5.952;2022-08-01T10:04:48;5.60;;;1.60;;
72590;SDS011;60625;51.212;5.952;2022-08-01T10:09:50;3.70;;;1.80;;
72590;SDS011;60625;51.212;5.952;2022-08-01T10:14:51;3.30;;;1.50;;
72590;SDS011;60625;51.212;5.952;2022-08-01T10:19:55;5.90;;;1.40;;
72590;SDS011;60625;51.212;5.952;2022-08-01T10:24:57;2.90;;;1.40;;
72590;SDS011;60625;51.212;5.952;2022-08-01T10:30:04;5.10;;;1.80;;
72590;SDS011;60625;51.212;5.952;2022-08-01T10:35:08;4.80;;;1.50;;
72590;SDS011;60625;51.212;5.952;2022-08-01T10:40:14;4.50;;;1.80;;
72590;SDS011;60625;51.212;5.952;2022-08-01T10:45:16;3.60;;;1.70;;
72590;SDS011;60625;51.212;5.952;2022-08-01T10:50:28;3.70;;;1.90;;
72590;SDS011;60625;51.212;5.952;2022-08-01T10:56:05;4.20;;;2.10;;
72590;SDS011;60625;51.212;5.952;2022-08-01T11:01:28;3.70;;;1.90;;
72590;SDS011;60625;51.212;5.952;2022-08-01T11:11:32;4.20;;;2.40;;
72590;SDS011;60625;51.212;5.952;2022-08-01T11:17:31;3.60;;;1.80;;
72590;SDS011;60625;51.212;5.952;2022-08-01T11:33:16;3.50;;;1.90;;
72590;SDS011;60625;51.212;5.952;2022-08-01T11:38:44;3.40;;;1.50;;
72590;SDS011;60625;51.212;5.952;2022-08-01T11:43:57;3.60;;;2.30;;
72590;SDS011;60625;51.212;5.952;2022-08-01T11:54:40;2.90;;;1.40;;
72590;SDS011;60625;51.212;5.952;2022-08-01T11:59:47;3.40;;;1.70;;
72590;SDS011;60625;51.212;5.952;2022-08-01T12:04:55;5.40;;;2.00;;
72590;SDS011;60625;51.212;5.952;2022-08-01T12:10:20;3.60;;;1.60;;
72590;SDS011;60625;51.212;5.952;2022-08-01T12:15:23;2.90;;;1.30;;
72590;SDS011;60625;51.212;5.952;2022-08-01T12:20:35;3.30;;;1.50;;
72590;SDS011;60625;51.212;5.952;2022-08-01T12:25:51;3.30;;;1.30;;
72590;SDS011;60625;51.212;5.952;2022-08-01T12:30:52;2.70;;;1.10;;
72590;SDS011;60625;51.212;5.952;2022-08-01T12:35:52;4.70;;;0.90;;
72590;SDS011;60625;51.212;5.952;2022-08-01T12:40:53;3.20;;;1.10;;
72590;SDS011;60625;51.212;5.952;2022-08-01T12:45:54;5.50;;;1.30;;
72590;SDS011;60625;51.212;5.952;2022-08-01T12:50:57;4.90;;;1.50;;
72590;SDS011;60625;51.212;5.952;2022-08-01T12:56:00;4.40;;;1.60;;
72590;SDS011;60625;51.212;5.952;2022-08-01T13:01:09;3.90;;;2.10;;
72590;SDS011;60625;51.212;5.952;2022-08-01T13:06:12;3.70;;;1.60;;
72590;SDS011;60625;51.212;5.952;2022-08-01T13:11:15;7.20;;;2.20;;
72590;SDS011;60625;51.212;5.952;2022-08-01T13:16:18;4.60;;;1.90;;
72590;SDS011;60625;51.212;5.952;2022-08-01T13:21:22;3.90;;;1.80;;
72590;SDS011;60625;51.212;5.952;2022-08-01T13:26:46;5.50;;;1.50;;
72590;SDS011;60625;51.212;5.952;2022-08-01T13:31:47;3.60;;;1.50;;
72590;SDS011;60625;51.212;5.952;2022-08-01T13:36:48;3.90;;;1.70;;
72590;SDS011;60625;51.212;5.952;2022-08-01T13:41:49;6.50;;;1.90;;
72590;SDS011;60625;51.212;5.952;2022-08-01T13:46:50;3.50;;;1.20;;
72590;SDS011;60625;51.212;5.952;2022-08-01T13:51:50;3.40;;;1.50;;
72590;SDS011;60625;51.212;5.952;2022-08-01T13:56:52;2.90;;;1.00;;
72590;SDS011;60625;51.212;5.952;2022-08-01T14:01:53;3.40;;;1.10;;
72590;SDS011;60625;51.212;5.952;2022-08-01T14:06:54;4.90;;;1.10;;
72590;SDS011;60625;51.212;5.952;2022-08-01T14:11:54;3.70;;;1.40;;
72590;SDS011;60625;51.212;5.952;2022-08-01T14:16:55;3.70;;;1.50;;
72590;SDS011;60625;51.212;5.952;2022-08-01T14:21:56;5.50;;;1.80;;
72590;SDS011;60625;51.212;5.952;2022-08-01T14:26:57;5.00;;;1.20;;
72590;SDS011;60625;51.212;5.952;2022-08-01T14:31:57;2.70;;;0.70;;
72590;SDS011;60625;51.212;5.952;2022-08-01T14:36:58;3.40;;;1.40;;
72590;SDS011;60625;51.212;5.952;2022-08-01T14:41:58;5.30;;;1.80;;
72590;SDS011;60625;51.212;5.952;2022-08-01T14:46:59;3.90;;;1.30;;
72590;SDS011;60625;51.212;5.952;2022-08-01T14:52:00;3.80;;;1.30;;
72590;SDS011;60625;51.212;5.952;2022-08-01T14:57:00;3.10;;;1.20;;
72590;SDS011;60625;51.212;5.952;2022-08-01T15:02:01;5.40;;;1.20;;
72590;SDS011;60625;51.212;5.952;2022-08-01T15:07:02;6.70;;;1.00;;
72590;SDS011;60625;51.212;5.952;2022-08-01T15:12:02;3.40;;;1.00;;
72590;SDS011;60625;51.212;5.952;2022-08-01T15:17:03;3.20;;;0.90;;
72590;SDS011;60625;51.212;5.952;2022-08-01T15:22:04;3.90;;;1.30;;
72590;SDS011;60625;51.212;5.952;2022-08-01T15:27:05;3.50;;;1.10;;
72590;SDS011;60625;51.212;5.952;2022-08-01T15:32:07;3.90;;;1.20;;
72590;SDS011;60625;51.212;5.952;2022-08-01T15:37:09;4.10;;;1.20;;
72590;SDS011;60625;51.212;5.952;2022-08-01T15:42:12;3.10;;;1.10;;
72590;SDS011;60625;51.212;5.952;2022-08-01T15:47:13;3.60;;;1.00;;
72590;SDS011;60625;51.212;5.952;2022-08-01T15:52:17;3.60;;;1.30;;
72590;SDS011;60625;51.212;5.952;2022-08-01T15:57:17;4.00;;;1.10;;
72590;SDS011;60625;51.212;5.952;2022-08-01T16:02:18;4.20;;;1.40;;
72590;SDS011;60625;51.212;5.952;2022-08-01T16:07:18;4.90;;;1.40;;
72590;SDS011;60625;51.212;5.952;2022-08-01T16:12:21;6.00;;;1.70;;
72590;SDS011;60625;51.212;5.952;2022-08-01T16:17:21;4.80;;;1.60;;
72590;SDS011;60625;51.212;5.952;2022-08-01T16:22:22;4.90;;;1.30;;
72590;SDS011;60625;51.212;5.952;2022-08-01T16:27:23;4.70;;;1.60;;
72590;SDS011;60625;51.212;5.952;2022-08-01T16:32:23;3.50;;;1.10;;
72590;SDS011;60625;51.212;5.952;2022-08-01T16:37:24;6.60;;;1.50;;
72590;SDS011;60625;51.212;5.952;2022-08-01T16:42:24;5.40;;;1.30;;
72590;SDS011;60625;51.212;5.952;2022-08-01T16:47:24;7.10;;;1.50;;
72590;SDS011;60625;51.212;5.952;2022-08-01T16:52:25;5.10;;;1.60;;
72590;SDS011;60625;51.212;5.952;2022-08-01T16:57:26;3.90;;;1.20;;
72590;SDS011;60625;51.212;5.952;2022-08-01T17:02:26;4.80;;;1.20;;
72590;SDS011;60625;51.212;5.952;2022-08-01T17:07:27;4.40;;;1.30;;
72590;SDS011;60625;51.212;5.952;2022-08-01T17:12:27;3.80;;;1.60;;
72590;SDS011;60625;51.212;5.952;2022-08-01T17:17:28;5.80;;;1.70;;
72590;SDS011;60625;51.212;5.952;2022-08-01T17:22:29;4.80;;;1.20;;
72590;SDS011;60625;51.212;5.952;2022-08-01T17:27:36;4.10;;;1.20;;
72590;SDS011;60625;51.212;5.952;2022-08-01T17:32:40;6.10;;;1.40;;
72590;SDS011;60625;51.212;5.952;2022-08-01T17:37:41;3.50;;;1.10;;
72590;SDS011;60625;51.212;5.952;2022-08-01T17:42:42;4.20;;;1.30;;
72590;SDS011;60625;51.212;5.952;2022-08-01T17:47:43;9.40;;;1.10;;
72590;SDS011;60625;51.212;5.952;2022-08-01T17:52:43;7.10;;;1.30;;
72590;SDS011;60625;51.212;5.952;2022-08-01T17:57:45;4.50;;;1.30;;
72590;SDS011;60625;51.212;5.952;2022-08-01T18:02:48;5.90;;;1.50;;
72590;SDS011;60625;51.212;5.952;2022-08-01T18:07:56;4.20;;;1.20;;
72590;SDS011;60625;51.212;5.952;2022-08-01T18:12:58;6.60;;;0.90;;
72590;SDS011;60625;51.212;5.952;2022-08-01T18:18:01;4.70;;;1.50;;
72590;SDS011;60625;51.212;5.952;2022-08-01T18:23:01;4.00;;;1.30;;
72590;SDS011;60625;51.212;5.952;2022-08-01T18:28:02;8.30;;;1.50;;
72590;SDS011;60625;51.212;5.952;2022-08-01T18:33:03;4.60;;;1.40;;
72590;SDS011;60625;51.212;5.952;2022-08-01T18:38:03;5.50;;;1.40;;
72590;SDS011;60625;51.212;5.952;2022-08-01T18:43:04;5.00;;;2.00;;
72590;SDS011;60625;51.212;5.952;2022-08-01T18:48:05;5.80;;;1.60;;
72590;SDS011;60625;51.212;5.952;2022-08-01T18:53:08;7.70;;;1.70;;
72590;SDS011;60625;51.212;5.952;2022-08-01T18:58:11;4.40;;;1.30;;
72590;SDS011;60625;51.212;5.952;2022-08-01T19:03:12;7.30;;;1.20;;
72590;SDS011;60625;51.212;5.952;2022-08-01T19:08:16;5.80;;;1.50;;
72590;SDS011;60625;51.212;5.952;2022-08-01T19:13:17;5.20;;;1.30;;
72590;SDS011;60625;51.212;5.952;2022-08-01T19:18:17;5.00;;;1.50;;
72590;SDS011;60625;51.212;5.952;2022-08-01T19:23:18;6.00;;;1.80;;
72590;SDS011;60625;51.212;5.952;2022-08-01T19:28:43;7.90;;;1.70;;
72590;SDS011;60625;51.212;5.952;2022-08-01T19:33:48;5.80;;;2.30;;
72590;SDS011;60625;51.212;5.952;2022-08-01T19:38:51;9.80;;;2.20;;
72590;SDS011;60625;51.212;5.952;2022-08-01T19:43:54;6.70;;;2.00;;
72590;SDS011;60625;51.212;5.952;2022-08-01T19:48:55;7.60;;;2.20;;
72590;SDS011;60625;51.212;5.952;2022-08-01T19:53:59;5.20;;;2.10;;
72590;SDS011;60625;51.212;5.952;2022-08-01T19:59:05;5.80;;;2.30;;
72590;SDS011;60625;51.212;5.952;2022-08-01T20:04:09;6.20;;;1.80;;
72590;SDS011;60625;51.212;5.952;2022-08-01T20:09:09;9.10;;;2.20;;
72590;SDS011;60625;51.212;5.952;2022-08-01T20:14:14;8.00;;;2.30;;
72590;SDS011;60625;51.212;5.952;2022-08-01T20:19:18;6.20;;;2.50;;
72590;SDS011;60625;51.212;5.952;2022-08-01T20:24:21;8.10;;;2.10;;
72590;SDS011;60625;51.212;5.952;2022-08-01T20:29:27;10.30;;;3.00;;
72590;SDS011;60625;51.212;5.952;2022-08-01T20:34:34;5.00;;;2.10;;
72590;SDS011;60625;51.212;5.952;2022-08-01T20:39:40;9.30;;;2.10;;
72590;SDS011;60625;51.212;5.952;2022-08-01T20:44:42;7.20;;;1.90;;
72590;SDS011;60625;51.212;5.952;2022-08-01T20:49:44;9.50;;;2.50;;
72590;SDS011;60625;51.212;5.952;2022-08-01T20:54:47;6.10;;;2.00;;
72590;SDS011;60625;51.212;5.952;2022-08-01T20:59:58;6.70;;;2.10;;
72590;SDS011;60625;51.212;5.952;2022-08-01T21:05:07;7.90;;;1.50;;
72590;SDS011;60625;51.212;5.952;2022-08-01T21:10:13;8.10;;;1.70;;
72590;SDS011;60625;51.212;5.952;2022-08-01T21:15:46;6.50;;;1.90;;
72590;SDS011;60625;51.212;5.952;2022-08-01T21:21:01;8.50;;;2.30;;
72590;SDS011;60625;51.212;5.952;2022-08-01T21:26:02;6.20;;;2.10;;
72590;SDS011;60625;51.212;5.952;2022-08-01T21:31:04;6.40;;;2.20;;
72590;SDS011;60625;51.212;5.952;2022-08-01T21:36:06;5.10;;;1.80;;
72590;SDS011;60625;51.212;5.952;2022-08-01T21:41:08;6.30;;;1.40;;
72590;SDS011;60625;51.212;5.952;2022-08-01T21:46:10;7.90;;;1.80;;
72590;SDS011;60625;51.212;5.952;2022-08-01T21:51:43;6.80;;;1.90;;
72590;SDS011;60625;51.212;5.952;2022-08-01T21:57:09;5.40;;;1.30;;
72590;SDS011;60625;51.212;5.952;2022-08-01T22:02:28;4.80;;;1.40;;
72590;SDS011;60625;51.212;5.952;2022-08-01T22:07:47;6.60;;;1.80;;
72590;SDS011;60625;51.212;5.952;2022-08-01T22:12:52;8.20;;;1.90;;
72590;SDS011;60625;51.212;5.952;2022-08-01T22:17:53;5.50;;;1.60;;
72590;SDS011;60625;51.212;5.952;2022-08-01T22:22:54;4.60;;;1.40;;
72590;SDS011;60625;51.212;5.952;2022-08-01T22:27:55;6.40;;;1.60;;
72590;SDS011;60625;51.212;5.952;2022-08-01T22:32:57;6.80;;;1.70;;
72590;SDS011;60625;51.212;5.952;2022-08-01T22:37:58;5.50;;;1.70;;
72590;SDS011;60625;51.212;5.952;2022-08-01T22:43:02;5.10;;;1.30;;
72590;SDS011;60625;51.212;5.952;2022-08-01T22:48:14;4.70;;;1.50;;
72590;SDS011;60625;51.212;5.952;2022-08-01T22:54:02;5.70;;;1.60;;
72590;SDS011;60625;51.212;5.952;2022-08-01T22:59:15;4.00;;;1.50;;
72590;SDS011;60625;51.212;5.952;2022-08-01T23:04:21;5.60;;;1.70;;
72590;SDS011;60625;51.212;5.952;2022-08-01T23:09:24;5.80;;;2.00;;
72590;SDS011;60625;51.212;5.952;2022-08-01T23:14:26;6.20;;;1.40;;
72590;SDS011;60625;51.212;5.952;2022-08-01T23:19:31;5.30;;;1.30;;
72590;SDS011;60625;51.212;5.952;2022-08-01T23:24:33;4.70;;;1.60;;
72590;SDS011;60625;51.212;5.952;2022-08-01T23:29:34;7.80;;;1.60;;
72590;SDS011;60625;51.212;5.952;2022-08-01T23:34:34;7.40;;;1.50;;
72590;SDS011;60625;51.212;5.952;2022-08-01T23:39:35;5.70;;;1.40;;
72590;SDS011;60625;51.212;5.952;2022-08-01T23:44:36;5.20;;;1.30;;
72590;SDS011;60625;51.212;5.952;2022-08-01T23:49:37;7.40;;;1.60;;
72590;SDS011;60625;51.212;5.952;2022-08-01T23:54:38;4.80;;;1.50;;
72590;SDS011;60625;51.212;5.952;2022-08-01T23:59:39;5.50;;;1.60;;
